Rudd, Arkansas
Current Conditions -  °F | °C
As of 7:00 AM on Monday 22 Dec 2014 (Local Time) from KHRO Reporting Station
Overcast Overcast  
Wind Chill: 42°   Ceiling: 1300
Heat Index: 45°   Visibility: 10mi
Dew Point: 43°   Wind: 6mph
Humidity: 93%   Direction: 130°SE
Pressure: 29.67"   Gusts: NA
Location:  36.3056°N, 93.5491°W
Report Text: KHRO 221300Z AUTO 13005KT 10SM OVC013 07/06 A2967 RMK AO2 T00720061 $
Loading
Personal Weather Stations






























Interactive Weather Map New forecast layout! Learn more

10-Day Weather Forecast

Advertisements
Track Severe Weather on mobile